createdAt,value
2023-05-20T00:01:28.811Z,2.21
2023-05-20T00:03:23.793Z,2.21
2023-05-20T00:05:23.739Z,2.21
2023-05-20T00:07:22.022Z,2.21
2023-05-20T00:09:22.604Z,2.22
2023-05-20T00:11:22.261Z,2.22
2023-05-20T00:13:22.802Z,2.22
2023-05-20T00:15:22.582Z,2.21
2023-05-20T00:17:23.410Z,2.21
2023-05-20T00:19:22.863Z,2.21
2023-05-20T00:21:21.978Z,2.2
2023-05-20T00:23:22.479Z,2.2
2023-05-20T00:25:22.277Z,2.2
2023-05-20T00:27:22.776Z,2.2
2023-05-20T00:29:22.101Z,2.2
2023-05-20T00:31:22.976Z,2.2
2023-05-20T00:33:23.006Z,2.2
2023-05-20T00:35:22.148Z,2.2
2023-05-20T00:37:22.419Z,2.2
2023-05-20T00:39:22.210Z,2.21
2023-05-20T00:41:24.751Z,2.21
2023-05-20T00:43:22.751Z,2.21
2023-05-20T00:45:22.155Z,2.2
2023-05-20T00:47:22.970Z,2.2
2023-05-20T00:49:22.287Z,2.2
2023-05-20T00:51:23.025Z,2.21
2023-05-20T00:53:22.400Z,2.21
2023-05-20T00:55:22.000Z,2.21
2023-05-20T00:57:22.348Z,2.21
2023-05-20T00:59:22.816Z,2.21
2023-05-20T01:01:26.234Z,2.21
2023-05-20T01:03:23.270Z,2.2
2023-05-20T01:05:22.566Z,2.2
2023-05-20T01:07:22.126Z,2.2
2023-05-20T01:09:22.481Z,2.21
2023-05-20T01:11:22.507Z,2.21
2023-05-20T01:13:22.007Z,2.21
2023-05-20T01:15:22.761Z,2.22
2023-05-20T01:17:22.339Z,2.22
2023-05-20T01:19:23.501Z,2.22
2023-05-20T01:21:22.245Z,2.22
2023-05-20T01:23:22.750Z,2.22
2023-05-20T01:25:22.182Z,2.22
2023-05-20T01:27:22.979Z,2.22
2023-05-20T01:29:22.511Z,2.22
2023-05-20T01:31:22.405Z,2.22
2023-05-20T01:33:22.968Z,2.23
2023-05-20T01:35:22.202Z,2.23
2023-05-20T01:37:22.850Z,2.23
2023-05-20T01:39:22.352Z,2.23
2023-05-20T01:41:22.182Z,2.23
2023-05-20T01:43:21.985Z,2.23
2023-05-20T01:45:22.515Z,2.24
2023-05-20T01:47:22.452Z,2.24
2023-05-20T01:49:22.956Z,2.24
2023-05-20T01:51:22.795Z,2.24
2023-05-20T01:53:22.007Z,2.24
2023-05-20T01:55:22.548Z,2.24
2023-05-20T01:57:22.143Z,2.25
2023-05-20T01:59:22.720Z,2.25
2023-05-20T02:01:25.528Z,2.25
2023-05-20T02:03:22.842Z,2.24
2023-05-20T02:05:22.526Z,2.24
2023-05-20T02:07:22.257Z,2.24
2023-05-20T02:09:22.698Z,2.24
2023-05-20T02:11:22.335Z,2.24
2023-05-20T02:13:22.731Z,2.24
2023-05-20T02:15:22.682Z,2.25
2023-05-20T02:17:22.676Z,2.25
2023-05-20T02:19:22.329Z,2.25
2023-05-20T02:21:22.821Z,2.26
2023-05-20T02:23:22.197Z,2.26
2023-05-20T02:25:21.960Z,2.26
2023-05-20T02:27:22.435Z,2.26
2023-05-20T02:29:22.224Z,2.26
2023-05-20T02:31:22.847Z,2.26
2023-05-20T02:33:22.586Z,2.28
2023-05-20T02:35:22.426Z,2.28
2023-05-20T02:37:22.743Z,2.28
2023-05-20T02:39:22.398Z,2.28
2023-05-20T02:41:21.970Z,2.28
2023-05-20T02:43:22.300Z,2.28
2023-05-20T02:45:22.240Z,2.28
2023-05-20T02:47:22.983Z,2.28
2023-05-20T02:49:22.510Z,2.28
2023-05-20T02:51:22.693Z,2.28
2023-05-20T02:53:22.432Z,2.28
2023-05-20T02:55:22.069Z,2.28
2023-05-20T02:57:22.666Z,2.29
2023-05-20T02:59:22.163Z,2.29
2023-05-20T03:01:26.209Z,2.29
2023-05-20T03:03:22.845Z,2.29
2023-05-20T03:05:22.655Z,2.29
2023-05-20T03:07:22.853Z,2.29
2023-05-20T03:09:22.305Z,2.29
2023-05-20T03:11:22.165Z,2.29
2023-05-20T03:13:22.467Z,2.29
2023-05-20T03:15:22.221Z,2.29
2023-05-20T03:17:22.989Z,2.29
2023-05-20T03:19:22.720Z,2.29
2023-05-20T03:21:22.396Z,2.29
2023-05-20T03:23:22.667Z,2.29
2023-05-20T03:25:22.293Z,2.29
2023-05-20T03:27:22.070Z,2.3
2023-05-20T03:29:22.373Z,2.3
2023-05-20T03:31:22.344Z,2.3
2023-05-20T03:33:22.845Z,2.29
2023-05-20T03:35:22.249Z,2.29
2023-05-20T03:37:22.730Z,2.29
2023-05-20T03:39:22.303Z,2.3
2023-05-20T03:41:22.186Z,2.3
2023-05-20T03:43:22.600Z,2.3
2023-05-20T03:45:22.436Z,2.29
2023-05-20T03:47:23.224Z,2.29
2023-05-20T03:49:22.684Z,2.29
2023-05-20T03:51:22.375Z,2.29
2023-05-20T03:53:22.770Z,2.29
2023-05-20T03:55:22.348Z,2.29
2023-05-20T03:57:21.739Z,2.3
2023-05-20T03:59:22.450Z,2.3
2023-05-20T04:01:26.125Z,2.3
2023-05-20T04:03:23.046Z,2.29
2023-05-20T04:05:22.822Z,2.29
2023-05-20T04:07:24.077Z,2.29
2023-05-20T04:09:22.910Z,2.3
2023-05-20T04:11:22.512Z,2.3
2023-05-20T04:13:22.108Z,2.3
2023-05-20T04:15:22.518Z,2.3
2023-05-20T04:17:22.458Z,2.3
2023-05-20T04:19:23.419Z,2.3
2023-05-20T04:21:22.731Z,2.29
2023-05-20T04:23:22.068Z,2.29
2023-05-20T04:25:22.905Z,2.29
2023-05-20T04:27:21.987Z,2.28
2023-05-20T04:29:22.704Z,2.28
2023-05-20T04:31:22.729Z,2.28
2023-05-20T04:33:22.350Z,2.29
2023-05-20T04:35:22.573Z,2.29
2023-05-20T04:37:22.167Z,2.29
2023-05-20T04:39:25.573Z,2.28
2023-05-20T04:41:22.646Z,2.28
2023-05-20T04:43:22.141Z,2.28
2023-05-20T04:45:22.765Z,2.28
2023-05-20T04:47:22.661Z,2.28
2023-05-20T04:49:22.258Z,2.28
2023-05-20T04:51:22.966Z,2.28
2023-05-20T04:53:22.560Z,2.28
2023-05-20T04:55:23.104Z,2.28
2023-05-20T04:57:22.347Z,2.28
2023-05-20T04:59:22.001Z,2.28
2023-05-20T05:01:26.409Z,2.28
2023-05-20T05:03:22.547Z,2.28
2023-05-20T05:05:22.231Z,2.28
2023-05-20T05:07:22.936Z,2.28
2023-05-20T05:09:22.563Z,2.29
2023-05-20T05:11:22.071Z,2.29
2023-05-20T05:13:22.674Z,2.29
2023-05-20T05:15:22.534Z,2.3
2023-05-20T05:17:22.658Z,2.3
2023-05-20T05:19:23.431Z,2.3
2023-05-20T05:21:23.093Z,2.31
2023-05-20T05:23:22.466Z,2.31
2023-05-20T05:25:22.375Z,2.31
2023-05-20T05:27:22.856Z,2.3
2023-05-20T05:29:23.393Z,2.3
2023-05-20T05:31:23.111Z,2.3
2023-05-20T05:33:23.358Z,2.29
2023-05-20T05:35:22.034Z,2.29
2023-05-20T05:37:22.584Z,2.29
2023-05-20T05:39:22.021Z,2.28
2023-05-20T05:41:22.980Z,2.28
2023-05-20T05:43:22.642Z,2.28
2023-05-20T05:45:22.254Z,2.28
2023-05-20T05:47:23.105Z,2.28
2023-05-20T05:49:22.357Z,2.28
2023-05-20T05:51:22.982Z,2.26
2023-05-20T05:53:22.652Z,2.26
2023-05-20T05:55:22.148Z,2.26
2023-05-20T05:57:22.669Z,2.28
2023-05-20T05:59:22.364Z,2.28
2023-05-20T06:01:25.352Z,2.28
2023-05-20T06:03:24.091Z,2.28
2023-05-20T06:05:22.480Z,2.28
2023-05-20T06:07:22.608Z,2.28
2023-05-20T06:09:22.105Z,2.28
2023-05-20T06:11:22.874Z,2.28
2023-05-20T06:13:23.444Z,2.28
2023-05-20T06:15:22.052Z,2.28
2023-05-20T06:17:23.088Z,2.28
2023-05-20T06:19:26.352Z,2.28
2023-05-20T06:21:22.101Z,2.28
2023-05-20T06:23:22.558Z,2.28
2023-05-20T06:25:22.278Z,2.28
2023-05-20T06:27:22.383Z,2.28
2023-05-20T06:29:22.025Z,2.28
2023-05-20T06:31:23.525Z,2.28
2023-05-20T06:33:23.036Z,2.25
2023-05-20T06:35:21.872Z,2.25
2023-05-20T06:37:22.828Z,2.25
2023-05-20T06:39:22.562Z,2.23
2023-05-20T06:41:22.808Z,2.23
2023-05-20T06:43:22.318Z,2.23
2023-05-20T06:45:22.802Z,2.23
2023-05-20T06:47:22.811Z,2.23
2023-05-20T06:49:22.948Z,2.23
2023-05-20T06:51:22.817Z,2.25
2023-05-20T06:53:21.904Z,2.25
2023-05-20T06:55:22.639Z,2.25
2023-05-20T06:57:22.419Z,2.25
2023-05-20T06:59:22.575Z,2.25
2023-05-20T07:01:29.403Z,2.25
2023-05-20T07:03:22.184Z,2.25
2023-05-20T07:05:22.899Z,2.25
2023-05-20T07:07:22.140Z,2.25
2023-05-20T07:09:22.696Z,2.25
2023-05-20T07:11:22.580Z,2.25
2023-05-20T07:13:22.906Z,2.25
2023-05-20T07:15:22.333Z,2.25
2023-05-20T07:17:22.416Z,2.25
2023-05-20T07:19:23.145Z,2.25
2023-05-20T07:21:22.561Z,2.25
2023-05-20T07:23:24.312Z,2.25
2023-05-20T07:25:22.352Z,2.25
2023-05-20T07:27:21.954Z,2.25
2023-05-20T07:29:22.635Z,2.25
2023-05-20T07:31:22.401Z,2.25
2023-05-20T07:33:23.066Z,2.24
2023-05-20T07:35:22.164Z,2.24
2023-05-20T07:37:21.917Z,2.24
2023-05-20T07:39:38.387Z,2.24
2023-05-20T07:41:22.359Z,2.24
2023-05-20T07:43:22.550Z,2.24
2023-05-20T07:45:22.480Z,2.23
2023-05-20T07:47:23.053Z,2.23
2023-05-20T07:49:22.507Z,2.23
2023-05-20T07:51:22.227Z,2.23
2023-05-20T07:53:41.715Z,2.23
2023-05-20T07:55:22.065Z,2.23
2023-05-20T07:57:22.675Z,2.23
2023-05-20T07:59:22.337Z,2.23
2023-05-20T08:01:22.020Z,2.23
2023-05-20T08:03:24.059Z,2.23
2023-05-20T08:05:22.723Z,2.23
2023-05-20T08:07:23.705Z,2.23
2023-05-20T08:09:22.808Z,2.24
2023-05-20T08:11:22.486Z,2.24
2023-05-20T08:13:21.731Z,2.24
2023-05-20T08:15:22.447Z,2.23
2023-05-20T08:17:22.632Z,2.23
2023-05-20T08:19:23.153Z,2.23
2023-05-20T08:21:22.570Z,2.23
2023-05-20T08:23:22.171Z,2.23
2023-05-20T08:25:22.669Z,2.23
2023-05-20T08:27:22.547Z,2.22
2023-05-20T08:29:21.875Z,2.22
2023-05-20T08:31:22.791Z,2.22
2023-05-20T08:33:22.507Z,2.2
2023-05-20T08:35:24.741Z,2.2
2023-05-20T08:37:22.392Z,2.2
2023-05-20T08:39:22.102Z,2.21
2023-05-20T08:41:24.317Z,2.21
2023-05-20T08:43:22.189Z,2.21
2023-05-20T08:45:22.713Z,2.21
2023-05-20T08:47:22.482Z,2.21
2023-05-20T08:49:22.754Z,2.21
2023-05-20T08:51:23.755Z,2.2
2023-05-20T08:53:22.304Z,2.2
2023-05-20T08:55:22.839Z,2.2
2023-05-20T08:57:22.099Z,2.19
2023-05-20T08:59:21.690Z,2.19
2023-05-20T09:01:26.444Z,2.19
2023-05-20T09:03:24.484Z,2.19
2023-05-20T09:05:22.921Z,2.19
2023-05-20T09:07:21.866Z,2.19
2023-05-20T09:09:25.631Z,2.19
2023-05-20T09:11:22.177Z,2.19
2023-05-20T09:13:23.929Z,2.19
2023-05-20T09:15:22.347Z,2.19
2023-05-20T09:17:23.226Z,2.19
2023-05-20T09:19:24.548Z,2.19
2023-05-20T09:21:23.589Z,2.2
2023-05-20T09:23:22.420Z,2.2
2023-05-20T09:25:23.906Z,2.2
2023-05-20T09:27:22.360Z,2.21
2023-05-20T09:29:22.061Z,2.21
2023-05-20T09:31:22.843Z,2.21
2023-05-20T09:33:22.791Z,2.22
2023-05-20T09:35:21.791Z,2.22
2023-05-20T09:37:25.640Z,2.22
2023-05-20T09:39:22.124Z,2.23
2023-05-20T09:41:22.702Z,2.23
2023-05-20T09:43:24.193Z,2.23
2023-05-20T09:45:22.587Z,2.23
2023-05-20T09:47:22.316Z,2.23
2023-05-20T09:49:22.767Z,2.23
2023-05-20T09:51:22.207Z,2.23
2023-05-20T09:53:22.420Z,2.23
2023-05-20T09:55:22.498Z,2.23
2023-05-20T09:57:22.127Z,2.25
2023-05-20T09:59:25.243Z,2.25
2023-05-20T10:01:26.354Z,2.25
2023-05-20T10:03:23.614Z,2.26
2023-05-20T10:05:22.294Z,2.26
2023-05-20T10:07:30.797Z,2.26
2023-05-20T10:09:22.200Z,2.25
2023-05-20T10:11:22.632Z,2.25
2023-05-20T10:13:22.032Z,2.25
2023-05-20T10:15:22.617Z,2.28
2023-05-20T10:17:22.386Z,2.28
2023-05-20T10:19:23.012Z,2.28
2023-05-20T10:21:22.695Z,2.26
2023-05-20T10:23:22.173Z,2.26
2023-05-20T10:25:23.531Z,2.26
2023-05-20T10:27:22.190Z,2.23
2023-05-20T10:29:23.324Z,2.23
2023-05-20T10:31:22.649Z,2.23
2023-05-20T10:33:23.910Z,2.21
2023-05-20T10:35:22.579Z,2.21
2023-05-20T10:37:22.069Z,2.21
2023-05-20T10:39:22.429Z,2.22
2023-05-20T10:41:22.443Z,2.22
2023-05-20T10:43:24.038Z,2.22
2023-05-20T10:45:22.181Z,2.22
2023-05-20T10:49:26.977Z,2.22
2023-05-20T10:51:22.929Z,2.2
2023-05-20T10:53:34.685Z,2.2
2023-05-20T10:55:26.242Z,2.2
2023-05-20T10:57:22.832Z,2.21
2023-05-20T10:59:22.402Z,2.21
2023-05-20T11:01:29.125Z,2.21
2023-05-20T11:03:23.708Z,2.21
2023-05-20T11:05:23.592Z,2.21
2023-05-20T11:07:24.685Z,2.21
2023-05-20T11:09:29.233Z,2.18
2023-05-20T11:11:22.375Z,2.18
2023-05-20T11:13:26.197Z,2.18
2023-05-20T11:15:22.798Z,2.14
2023-05-20T11:17:23.191Z,2.14
2023-05-20T11:19:22.986Z,2.14
2023-05-20T11:21:22.763Z,2.13
2023-05-20T11:23:22.373Z,2.13
2023-05-20T11:25:22.638Z,2.13
2023-05-20T11:27:21.932Z,2.13
2023-05-20T11:29:24.572Z,2.13
2023-05-20T11:31:23.166Z,2.13
2023-05-20T11:33:22.574Z,2.13
2023-05-20T11:35:25.328Z,2.13
2023-05-20T11:37:25.859Z,2.13
2023-05-20T11:39:22.269Z,2.07
2023-05-20T11:41:37.382Z,2.07
2023-05-20T11:43:22.286Z,2.07
2023-05-20T11:45:24.265Z,1.83
2023-05-20T11:47:22.801Z,1.83
2023-05-20T11:49:22.884Z,1.83
2023-05-20T11:51:25.366Z,1.81
2023-05-20T11:53:22.132Z,1.81
2023-05-20T11:55:22.735Z,1.81
2023-05-20T11:57:22.286Z,1.74
2023-05-20T11:59:22.812Z,1.74
2023-05-20T12:02:07.323Z,1.96
2023-05-20T12:03:26.368Z,1.91
2023-05-20T12:05:22.797Z,1.91
2023-05-20T12:07:22.217Z,1.91
2023-05-20T12:09:22.902Z,1.72
2023-05-20T12:11:22.954Z,1.72
2023-05-20T12:13:21.938Z,1.72
2023-05-20T12:15:22.351Z,1.78
2023-05-20T12:17:22.519Z,1.78
2023-05-20T12:19:23.006Z,1.78
2023-05-20T12:21:22.901Z,1.93
2023-05-20T12:23:22.401Z,1.93
2023-05-20T12:25:22.055Z,1.93
2023-05-20T12:27:22.800Z,1.78
2023-05-20T12:29:22.545Z,1.78
2023-05-20T12:31:22.691Z,1.78
2023-05-20T12:33:22.842Z,2.02
2023-05-20T12:35:22.365Z,2.02
2023-05-20T12:37:22.820Z,2.02
2023-05-20T12:39:22.485Z,2.11
2023-05-20T12:41:22.634Z,2.11
2023-05-20T12:43:22.700Z,2.11
2023-05-20T12:45:22.077Z,2.14
2023-05-20T12:47:22.924Z,2.14
2023-05-20T12:49:22.358Z,2.14
2023-05-20T12:51:23.192Z,2.13
2023-05-20T12:53:31.976Z,2.13
2023-05-20T12:55:21.725Z,2.13
2023-05-20T12:57:22.637Z,2.17
2023-05-20T12:59:22.158Z,2.17
2023-05-20T13:01:27.308Z,2.17
2023-05-20T13:03:26.789Z,2.16
2023-05-20T13:05:22.248Z,2.16
2023-05-20T13:07:22.645Z,2.16
2023-05-20T13:09:24.074Z,2.17
2023-05-20T13:11:23.496Z,2.17
2023-05-20T13:13:22.451Z,2.17
2023-05-20T13:15:22.071Z,2.16
2023-05-20T13:17:22.762Z,2.16
2023-05-20T13:19:22.438Z,2.16
2023-05-20T13:21:23.115Z,2.17
2023-05-20T13:23:22.205Z,2.17
2023-05-20T13:25:22.538Z,2.17
2023-05-20T13:27:22.257Z,2.14
2023-05-20T13:29:22.951Z,2.14
2023-05-20T13:31:22.989Z,2.14
2023-05-20T13:33:22.977Z,2.16
2023-05-20T13:35:22.271Z,2.16
2023-05-20T13:37:22.438Z,2.16
2023-05-20T13:39:23.630Z,2.16
2023-05-20T13:41:23.171Z,2.16
2023-05-20T13:43:22.426Z,2.16
2023-05-20T13:45:21.897Z,2.13
2023-05-20T13:47:22.784Z,2.13
2023-05-20T13:49:21.845Z,2.13
2023-05-20T13:51:23.956Z,2.14
2023-05-20T13:53:22.142Z,2.14
2023-05-20T13:55:24.589Z,2.14
2023-05-20T13:57:21.991Z,2.16
2023-05-20T13:59:22.852Z,2.16
2023-05-20T14:01:29.118Z,2.16
2023-05-20T14:03:23.582Z,2.14
2023-05-20T14:05:22.657Z,2.14
2023-05-20T14:07:22.579Z,2.14
2023-05-20T14:09:22.064Z,2.16
2023-05-20T14:11:23.275Z,2.16
2023-05-20T14:13:22.720Z,2.16
2023-05-20T14:15:21.824Z,2.13
2023-05-20T14:17:22.697Z,2.13
2023-05-20T14:19:22.609Z,2.13
2023-05-20T14:21:23.490Z,2.13
2023-05-20T14:23:22.537Z,2.13
2023-05-20T14:25:22.106Z,2.13
2023-05-20T14:27:22.815Z,2.12
2023-05-20T14:29:22.708Z,2.12
2023-05-20T14:31:22.942Z,2.12
2023-05-20T14:33:23.232Z,2.13
2023-05-20T14:35:22.365Z,2.13
2023-05-20T14:37:22.693Z,2.13
2023-05-20T14:39:24.282Z,2.14
2023-05-20T14:41:23.423Z,2.14
2023-05-20T14:43:22.533Z,2.14
2023-05-20T14:45:24.068Z,2.13
2023-05-20T14:47:23.236Z,2.13
2023-05-20T14:49:22.521Z,2.13
2023-05-20T14:51:24.475Z,2.14
2023-05-20T14:53:22.185Z,2.14
2023-05-20T14:55:22.912Z,2.14
2023-05-20T14:57:24.406Z,2.14
2023-05-20T14:59:22.042Z,2.14
2023-05-20T15:01:26.489Z,2.14
2023-05-20T15:03:23.697Z,2.17
2023-05-20T15:05:21.969Z,2.17
2023-05-20T15:07:22.317Z,2.17
2023-05-20T15:09:22.824Z,2.16
2023-05-20T15:11:22.892Z,2.16
2023-05-20T15:13:22.120Z,2.16
2023-05-20T15:15:22.510Z,2.14
2023-05-20T15:17:22.599Z,2.14
2023-05-20T15:19:23.199Z,2.14
2023-05-20T15:21:22.444Z,2.21
2023-05-20T15:23:24.035Z,2.21
2023-05-20T15:25:22.711Z,2.21
2023-05-20T15:27:22.184Z,2.22
2023-05-20T15:29:22.380Z,2.22
2023-05-20T15:31:22.698Z,2.22
2023-05-20T15:33:23.753Z,2.2
2023-05-20T15:35:23.121Z,2.2
2023-05-20T15:37:22.620Z,2.2
2023-05-20T15:39:22.343Z,2.23
2023-05-20T15:41:23.057Z,2.23
2023-05-20T15:43:22.624Z,2.23
2023-05-20T15:45:22.216Z,2.23
2023-05-20T15:47:23.078Z,2.23
2023-05-20T15:49:22.608Z,2.23
2023-05-20T15:51:22.329Z,2.21
2023-05-20T15:53:25.141Z,2.21
2023-05-20T15:55:22.072Z,2.21
2023-05-20T15:57:22.642Z,2.22
2023-05-20T15:59:22.351Z,2.22
2023-05-20T16:01:22.413Z,2.22
2023-05-20T16:03:24.045Z,2.23
2023-05-20T16:05:22.725Z,2.23
2023-05-20T16:07:22.572Z,2.23
2023-05-20T16:09:22.234Z,2.23
2023-05-20T16:11:23.648Z,2.23
2023-05-20T16:13:22.241Z,2.23
2023-05-20T16:15:22.721Z,2.25
2023-05-20T16:17:23.062Z,2.25
2023-05-20T16:19:23.507Z,2.25
2023-05-20T16:21:22.902Z,2.25
2023-05-20T16:23:22.317Z,2.25
2023-05-20T16:25:22.674Z,2.25
2023-05-20T16:27:22.031Z,2.29
2023-05-20T16:29:22.598Z,2.29
2023-05-20T16:31:22.950Z,2.29
2023-05-20T16:33:22.334Z,2.26
2023-05-20T16:35:22.586Z,2.26
2023-05-20T16:37:21.919Z,2.26
2023-05-20T16:39:22.546Z,2.26
2023-05-20T16:41:22.306Z,2.26
2023-05-20T16:43:22.548Z,2.26
2023-05-20T16:45:22.437Z,2.3
2023-05-20T16:47:22.810Z,2.3
2023-05-20T16:49:22.254Z,2.3
2023-05-20T16:51:23.093Z,2.28
2023-05-20T16:53:22.836Z,2.28
2023-05-20T16:55:22.198Z,2.28
2023-05-20T16:57:22.507Z,2.26
2023-05-20T16:59:25.220Z,2.26
2023-05-20T17:01:26.124Z,2.26
2023-05-20T17:03:22.947Z,2.26
2023-05-20T17:05:22.421Z,2.26
2023-05-20T17:07:23.052Z,2.26
2023-05-20T17:09:22.228Z,2.29
2023-05-20T17:11:23.019Z,2.29
2023-05-20T17:13:22.404Z,2.29
2023-05-20T17:15:22.020Z,2.29
2023-05-20T17:17:23.102Z,2.29
2023-05-20T17:19:23.352Z,2.29
2023-05-20T17:21:23.025Z,2.3
2023-05-20T17:23:22.258Z,2.3
2023-05-20T17:25:22.979Z,2.3
2023-05-20T17:27:22.149Z,2.31
2023-05-20T17:29:22.609Z,2.31
2023-05-20T17:31:22.676Z,2.31
2023-05-20T17:33:22.555Z,2.3
2023-05-20T17:35:22.744Z,2.3
2023-05-20T17:37:22.216Z,2.3
2023-05-20T17:39:22.579Z,2.3
2023-05-20T17:41:22.710Z,2.3
2023-05-20T17:43:22.841Z,2.3
2023-05-20T17:45:22.363Z,2.3
2023-05-20T17:47:22.462Z,2.3
2023-05-20T17:49:22.953Z,2.3
2023-05-20T17:51:22.857Z,2.24
2023-05-20T17:53:22.194Z,2.24
2023-05-20T17:55:22.659Z,2.24
2023-05-20T17:57:22.303Z,2.21
2023-05-20T17:59:21.976Z,2.21
2023-05-20T18:01:25.404Z,2.21
2023-05-20T18:03:23.613Z,2.19
2023-05-20T18:05:22.212Z,2.19
2023-05-20T18:07:22.480Z,2.19
2023-05-20T18:09:22.179Z,2.18
2023-05-20T18:11:23.106Z,2.18
2023-05-20T18:13:22.392Z,2.18
2023-05-20T18:15:21.960Z,2.14
2023-05-20T18:17:22.972Z,2.14
2023-05-20T18:19:22.903Z,2.14
2023-05-20T18:21:22.560Z,2.13
2023-05-20T18:23:22.782Z,2.13
2023-05-20T18:25:22.482Z,2.13
2023-05-20T18:27:22.140Z,2.12
2023-05-20T18:29:22.562Z,2.12
2023-05-20T18:31:23.045Z,2.12
2023-05-20T18:33:22.572Z,2.12
2023-05-20T18:35:22.621Z,2.12
2023-05-20T18:37:22.204Z,2.12
2023-05-20T18:39:25.712Z,2.12
2023-05-20T18:41:27.074Z,2.12
2023-05-20T18:43:22.412Z,2.12
2023-05-20T18:45:25.051Z,2.12
2023-05-20T18:47:22.746Z,2.12
2023-05-20T18:49:32.054Z,2.12
2023-05-20T18:51:23.354Z,2.11
2023-05-20T18:53:22.370Z,2.11
2023-05-20T18:55:22.181Z,2.11
2023-05-20T18:57:22.452Z,2.11
2023-05-20T18:59:23.274Z,2.11
2023-05-20T19:01:25.802Z,2.11
2023-05-20T19:03:22.312Z,2.12
2023-05-20T19:05:22.714Z,2.12
2023-05-20T19:07:22.436Z,2.12
2023-05-20T19:09:21.733Z,2.11
2023-05-20T19:11:24.832Z,2.11
2023-05-20T19:13:22.345Z,2.11
2023-05-20T19:15:22.954Z,2.11
2023-05-20T19:17:22.667Z,2.11
2023-05-20T19:19:22.490Z,2.11
2023-05-20T19:21:23.009Z,2.1
2023-05-20T19:23:22.532Z,2.1
2023-05-20T19:25:21.862Z,2.1
2023-05-20T19:27:22.281Z,2.09
2023-05-20T19:29:22.046Z,2.09
2023-05-20T19:31:22.982Z,2.09
2023-05-20T19:33:22.422Z,2.23
2023-05-20T19:35:22.676Z,2.23
2023-05-20T19:37:23.369Z,2.23
2023-05-20T19:39:22.198Z,7.19
2023-05-20T19:41:22.319Z,7.19
2023-05-20T19:43:23.316Z,7.19
2023-05-20T19:45:22.175Z,16.78
2023-05-20T19:47:23.053Z,16.78
2023-05-20T19:49:22.657Z,16.78
2023-05-20T19:51:22.666Z,23.89
2023-05-20T19:53:21.881Z,23.89
2023-05-20T19:55:22.359Z,23.89
2023-05-20T19:57:22.207Z,25.4
2023-05-20T19:59:22.790Z,25.4
2023-05-20T20:01:25.431Z,25.4
2023-05-20T20:03:22.485Z,27.11
2023-05-20T20:05:23.835Z,27.11
2023-05-20T20:07:23.174Z,27.11
2023-05-20T20:09:22.424Z,26.23
2023-05-20T20:11:22.311Z,26.23
2023-05-20T20:13:22.674Z,26.23
2023-05-20T20:15:22.593Z,30.13
2023-05-20T20:17:23.162Z,30.13
2023-05-20T20:19:23.238Z,30.13
2023-05-20T20:21:22.708Z,26.23
2023-05-20T20:23:22.281Z,26.23
2023-05-20T20:25:21.961Z,26.23
2023-05-20T20:27:22.744Z,29.05
2023-05-20T20:29:22.074Z,29.05
2023-05-20T20:31:22.822Z,29.05
2023-05-20T20:33:24.421Z,25.4
2023-05-20T20:35:22.805Z,25.4
2023-05-20T20:37:22.238Z,25.4
2023-05-20T20:39:21.893Z,23.89
2023-05-20T20:41:23.152Z,23.89
2023-05-20T20:43:22.308Z,23.89
2023-05-20T20:45:21.918Z,24.63
2023-05-20T20:47:23.056Z,24.63
2023-05-20T20:49:22.514Z,24.63
2023-05-20T20:51:22.726Z,19.74
2023-05-20T20:53:22.083Z,19.74
2023-05-20T20:55:22.854Z,19.74
2023-05-20T20:57:22.337Z,19.26
2023-05-20T20:59:22.014Z,19.26
2023-05-20T21:01:30.040Z,19.26
2023-05-20T21:03:23.388Z,20.78
2023-05-20T21:05:23.259Z,20.78
2023-05-20T21:07:24.747Z,20.78
2023-05-20T21:09:22.670Z,18.36
2023-05-20T21:11:22.196Z,18.36
2023-05-20T21:13:22.558Z,18.36
2023-05-20T21:15:22.215Z,31.28
2023-05-20T21:17:23.676Z,31.28
2023-05-20T21:19:22.560Z,31.28
2023-05-20T21:21:22.218Z,40.53
2023-05-20T21:23:21.933Z,40.53
2023-05-20T21:25:22.674Z,40.53
2023-05-20T21:27:22.066Z,30.13
2023-05-20T21:29:22.752Z,30.13
2023-05-20T21:31:22.884Z,30.13
2023-05-20T21:33:22.814Z,24.63
2023-05-20T21:35:22.724Z,24.63
2023-05-20T21:37:22.305Z,24.63
2023-05-20T21:39:21.969Z,20.25
2023-05-20T21:41:22.827Z,20.25
2023-05-20T21:43:22.549Z,20.25
2023-05-20T21:45:22.005Z,16.78
2023-05-20T21:47:23.011Z,16.78
2023-05-20T21:49:22.216Z,16.78
2023-05-20T21:51:22.922Z,14.03
2023-05-20T21:53:22.475Z,14.03
2023-05-20T21:55:22.078Z,14.03
2023-05-20T21:57:22.630Z,10.79
2023-05-20T21:59:22.022Z,10.79
2023-05-20T22:01:30.994Z,10.79
2023-05-20T22:03:23.095Z,8.82
2023-05-20T22:05:22.681Z,8.82
2023-05-20T22:07:22.163Z,8.82
2023-05-20T22:09:22.350Z,8.5
2023-05-20T22:11:22.200Z,8.5
2023-05-20T22:13:22.419Z,8.5
2023-05-20T22:15:21.951Z,7.84
2023-05-20T22:17:23.234Z,7.84
2023-05-20T22:19:22.340Z,7.84
2023-05-20T22:21:22.746Z,6.89
2023-05-20T22:23:22.052Z,6.89
2023-05-20T22:25:22.449Z,6.89
2023-05-20T22:27:22.275Z,5.76
2023-05-20T22:29:22.641Z,5.76
2023-05-20T22:31:22.696Z,5.76
2023-05-20T22:33:22.560Z,5.24
2023-05-20T22:35:22.424Z,5.24
2023-05-20T22:37:21.991Z,5.24
2023-05-20T22:39:22.587Z,4.95
2023-05-20T22:41:22.407Z,4.95
2023-05-20T22:43:22.701Z,4.95
2023-05-20T22:45:21.988Z,4.58
2023-05-20T22:47:23.395Z,4.58
2023-05-20T22:49:22.655Z,4.58
2023-05-20T22:51:26.778Z,4.17
2023-05-20T22:53:22.493Z,4.17
2023-05-20T22:55:21.998Z,4.17
2023-05-20T22:57:22.825Z,3.76
2023-05-20T22:59:22.248Z,3.76
2023-05-20T23:01:26.673Z,3.76
2023-05-20T23:03:23.307Z,3.48
2023-05-20T23:05:22.826Z,3.48
2023-05-20T23:07:22.847Z,3.48
2023-05-20T23:09:22.503Z,3.33
2023-05-20T23:11:22.986Z,3.33
2023-05-20T23:13:22.570Z,3.33
2023-05-20T23:15:22.713Z,3.31
2023-05-20T23:17:23.244Z,3.31
2023-05-20T23:19:23.502Z,3.31
2023-05-20T23:21:22.653Z,3.33
2023-05-20T23:23:43.023Z,3.33
2023-05-20T23:25:23.181Z,3.33
2023-05-20T23:27:22.415Z,3.33
2023-05-20T23:29:22.409Z,3.33
2023-05-20T23:31:22.206Z,3.33
2023-05-20T23:33:25.341Z,3.33
2023-05-20T23:35:22.464Z,3.33
2023-05-20T23:37:22.814Z,3.33
2023-05-20T23:39:22.419Z,3.29
2023-05-20T23:41:22.072Z,3.29
2023-05-20T23:43:22.380Z,3.29
2023-05-20T23:45:22.101Z,3.25
2023-05-20T23:47:22.823Z,3.25
2023-05-20T23:49:22.617Z,3.25
2023-05-20T23:51:22.138Z,3.23
2023-05-20T23:53:22.756Z,3.23
2023-05-20T23:55:22.127Z,3.23
2023-05-20T23:57:22.139Z,3.23
2023-05-20T23:59:22.682Z,3.23
